Time;durP1;ratioP1;P1;durP2;ratioP2;P2;SDS_P1;SDS_P2;PMS_P1;PMS_P2;Temp;Humidity;BMP_temperature;BMP_pressure;BME280_temperature;BME280_humidity;BME280_pressure;Samples;Min_cycle;Max_cycle;Signal;HPM_P1;HPM_P2
2021/03/25 00:01:16;;;;;;;32.90;15.60;;;4.10;99.90;;;;;;4921493;29;20067;-84
2021/03/25 00:03:47;;;;;;;27.38;15.48;;;4.10;99.90;;;;;;4932440;29;20088;-85
2021/03/25 00:06:15;;;;;;;27.23;14.90;;;4.20;99.90;;;;;;4937836;29;20075;-85
2021/03/25 00:08:41;;;;;;;26.02;14.25;;;4.20;99.90;;;;;;4906161;29;20487;-85
2021/03/25 00:11:10;;;;;;;29.63;15.45;;;4.20;99.90;;;;;;4921271;29;20065;-86
2021/03/25 00:13:37;;;;;;;28.83;14.25;;;4.20;99.90;;;;;;4920827;29;20143;-85
2021/03/25 00:16:10;;;;;;;32.72;15.70;;;4.20;99.90;;;;;;4937535;29;20536;-86
2021/03/25 00:18:37;;;;;;;30.83;15.90;;;4.10;99.90;;;;;;4921301;29;20047;-86
2021/03/25 00:21:11;;;;;;;26.23;14.57;;;3.90;99.90;;;;;;4921306;29;20048;-85
2021/03/25 00:23:41;;;;;;;31.02;17.70;;;3.80;99.90;;;;;;4937962;29;20162;-86
2021/03/25 00:26:11;;;;;;;34.00;15.63;;;3.80;99.90;;;;;;4937647;29;20434;-86
2021/03/25 00:28:37;;;;;;;29.90;17.17;;;3.80;99.90;;;;;;4935819;29;20127;-86
2021/03/25 00:31:06;;;;;;;30.40;16.85;;;3.70;99.90;;;;;;4921030;29;20127;-85
2021/03/25 00:33:33;;;;;;;32.10;16.73;;;3.70;99.90;;;;;;4937628;29;20481;-86
2021/03/25 00:36:02;;;;;;;27.42;16.75;;;3.70;99.90;;;;;;4920941;29;20402;-85
2021/03/25 00:38:29;;;;;;;32.10;16.27;;;3.60;99.90;;;;;;4937061;29;20115;-85
2021/03/25 00:41:04;;;;;;;25.92;15.25;;;3.70;99.90;;;;;;4920891;29;20432;-84
2021/03/25 00:43:31;;;;;;;27.98;14.85;;;3.60;99.90;;;;;;4907093;29;20385;-84
2021/03/25 00:45:57;;;;;;;28.23;15.20;;;3.50;99.90;;;;;;4937441;29;20415;-85
2021/03/25 00:48:25;;;;;;;23.80;14.93;;;3.50;99.90;;;;;;4938198;29;20052;-84
2021/03/25 00:50:58;;;;;;;25.42;13.80;;;3.40;99.90;;;;;;4938246;29;20059;-86
2021/03/25 00:53:28;;;;;;;28.02;14.30;;;3.40;99.90;;;;;;4921789;29;20492;-85
2021/03/25 00:55:55;;;;;;;22.85;13.27;;;3.30;99.90;;;;;;4936843;29;20071;-85
2021/03/25 00:58:22;;;;;;;27.23;15.18;;;3.20;99.90;;;;;;4939664;29;20473;-85
2021/03/25 01:00:51;;;;;;;25.33;14.35;;;3.10;99.90;;;;;;4921982;29;20079;-85
2021/03/25 01:03:23;;;;;;;22.00;13.90;;;3.10;99.90;;;;;;4940241;29;20082;-84
2021/03/25 01:05:52;;;;;;;25.13;14.95;;;3.00;99.90;;;;;;4940420;29;20078;-86
2021/03/25 01:08:20;;;;;;;22.58;14.40;;;3.00;99.90;;;;;;4924799;29;20055;-85
2021/03/25 01:11:08;;;;;;;21.75;12.57;;;3.00;99.90;;;;;;4919245;29;20078;-87
2021/03/25 01:13:44;;;;;;;24.73;13.35;;;3.30;99.90;;;;;;4933976;29;20051;-86
2021/03/25 01:16:26;;;;;;;21.05;12.18;;;3.50;99.90;;;;;;4940013;29;20090;-85
2021/03/25 01:18:54;;;;;;;19.00;12.57;;;3.50;99.90;;;;;;4936723;29;20124;-86
2021/03/25 01:21:20;;;;;;;26.00;11.95;;;3.60;99.90;;;;;;4905721;29;20418;-87
2021/03/25 01:23:47;;;;;;;22.10;11.85;;;3.60;99.90;;;;;;4920350;29;20359;-85
2021/03/25 01:26:14;;;;;;;19.73;12.40;;;3.60;99.90;;;;;;4920449;29;20111;-87
2021/03/25 01:28:41;;;;;;;21.42;12.27;;;3.60;99.90;;;;;;4937831;29;20386;-86
2021/03/25 01:31:09;;;;;;;21.30;12.23;;;3.70;99.90;;;;;;4937013;29;20082;-86
2021/03/25 01:33:36;;;;;;;20.33;12.57;;;3.70;99.90;;;;;;4936620;29;20043;-85
2021/03/25 01:36:04;;;;;;;21.20;12.13;;;3.70;99.90;;;;;;4937403;29;20047;-86
2021/03/25 01:38:33;;;;;;;16.17;10.93;;;3.70;99.90;;;;;;4919962;29;20131;-85
2021/03/25 01:41:03;;;;;;;24.33;12.38;;;3.70;99.90;;;;;;4936632;29;20123;-86
2021/03/25 01:43:39;;;;;;;17.48;10.40;;;3.70;99.90;;;;;;4922741;29;20055;-84
2021/03/25 01:46:21;;;;;;;23.60;12.10;;;3.70;99.90;;;;;;4941713;29;20388;-85
2021/03/25 01:48:54;;;;;;;14.20;10.00;;;3.80;99.90;;;;;;4936416;29;20032;-85
2021/03/25 01:51:48;;;;;;;19.25;11.10;;;3.80;99.90;;;;;;4930515;29;20055;-85
2021/03/25 01:54:24;;;;;;;19.42;10.75;;;3.90;99.90;;;;;;4925123;29;20060;-87
2021/03/25 01:57:04;;;;;;;18.02;10.73;;;4.00;99.90;;;;;;4940433;29;20102;-86
2021/03/25 02:00:04;;;;;;;18.35;10.60;;;4.00;99.90;;;;;;4941699;29;20122;-85
2021/03/25 02:02:36;;;;;;;14.73;10.18;;;4.10;99.90;;;;;;4940361;29;20079;-85
2021/03/25 02:05:07;;;;;;;18.42;10.45;;;4.10;99.90;;;;;;4940651;29;20083;-86
2021/03/25 02:07:54;;;;;;;17.98;10.18;;;4.20;99.90;;;;;;4937853;29;20124;-85
2021/03/25 02:11:06;;;;;;;16.30;10.25;;;4.20;99.90;;;;;;4938501;29;20047;-84
2021/03/25 02:14:02;;;;;;;17.48;9.15;;;4.20;99.90;;;;;;4923291;29;20353;-86
2021/03/25 02:16:51;;;;;;;16.85;9.20;;;4.30;99.90;;;;;;4947257;29;20076;-84
2021/03/25 02:19:36;;;;;;;14.05;9.43;;;4.30;99.90;;;;;;4933020;29;20059;-84
2021/03/25 02:22:40;;;;;;;16.27;9.77;;;4.40;99.90;;;;;;4938375;29;20048;-85
2021/03/25 02:25:17;;;;;;;16.60;9.82;;;4.30;99.90;;;;;;4940478;29;20048;-86
2021/03/25 02:28:21;;;;;;;16.90;9.48;;;4.20;99.90;;;;;;4949989;29;20109;-85
2021/03/25 02:30:48;;;;;;;18.52;9.52;;;4.20;99.90;;;;;;4892971;29;20513;-84
2021/03/25 02:33:20;;;;;;;16.05;9.77;;;4.20;99.90;;;;;;4938149;29;20438;-86
2021/03/25 02:36:00;;;;;;;11.38;8.15;;;4.20;99.90;;;;;;4922229;29;20047;-84
2021/03/25 02:38:35;;;;;;;14.88;9.65;;;4.30;99.90;;;;;;4931521;29;20044;-86
2021/03/25 02:41:18;;;;;;;13.80;9.25;;;4.40;99.90;;;;;;4940511;29;20044;-85
2021/03/25 02:44:05;;;;;;;14.75;9.38;;;4.40;99.90;;;;;;4922298;29;20066;-84
2021/03/25 02:46:38;;;;;;;15.60;8.80;;;4.30;99.90;;;;;;4939904;29;20048;-85
2021/03/25 02:49:11;;;;;;;14.32;8.60;;;4.30;99.90;;;;;;4920544;29;20055;-86
2021/03/25 02:51:56;;;;;;;19.65;9.57;;;4.20;99.90;;;;;;4937420;29;20067;-85
2021/03/25 02:54:23;;;;;;;14.98;9.15;;;4.10;99.90;;;;;;4937651;29;20052;-86
2021/03/25 02:56:57;;;;;;;15.95;10.07;;;4.10;99.90;;;;;;4921105;29;20171;-86
2021/03/25 02:59:39;;;;;;;17.48;9.85;;;4.00;99.90;;;;;;4911529;29;20346;-86
2021/03/25 03:02:24;;;;;;;16.20;9.27;;;3.90;99.90;;;;;;4919419;29;20055;-85
2021/03/25 03:04:57;;;;;;;14.45;9.30;;;3.80;99.90;;;;;;4910435;29;20040;-85
2021/03/25 03:07:31;;;;;;;15.75;9.63;;;3.80;99.90;;;;;;4936150;29;20066;-86
2021/03/25 03:10:07;;;;;;;14.45;8.90;;;3.70;99.90;;;;;;4936967;29;20071;-86
2021/03/25 03:12:39;;;;;;;;;;;3.70;99.90;;;;;;4926750;29;20143;-87
2021/03/25 03:15:15;;;;;;;16.67;9.20;;;3.70;99.90;;;;;;4934733;29;19958;-86
2021/03/25 03:17:57;;;;;;;16.42;9.60;;;3.70;99.90;;;;;;4918823;29;20139;-83
2021/03/25 03:20:48;;;;;;;17.02;9.98;;;3.70;99.90;;;;;;4935440;29;20427;-86
2021/03/25 03:23:16;;;;;;;15.57;9.07;;;3.60;99.90;;;;;;4921240;29;20060;-85
2021/03/25 03:25:43;;;;;;;15.80;9.00;;;3.60;99.90;;;;;;4937206;29;20047;-85
2021/03/25 03:28:21;;;;;;;20.40;9.40;;;3.50;99.90;;;;;;4920669;29;20333;-85
2021/03/25 03:31:02;;;;;;;17.83;9.15;;;3.50;99.90;;;;;;4916466;29;20047;-85
2021/03/25 03:33:53;;;;;;;15.35;9.20;;;3.50;99.90;;;;;;4920403;29;20048;-85
2021/03/25 03:36:23;;;;;;;13.65;8.75;;;3.50;99.90;;;;;;4933565;29;20044;-84
2021/03/25 03:39:01;;;;;;;15.15;9.57;;;3.50;99.90;;;;;;4926798;29;20039;-84
2021/03/25 03:41:37;;;;;;;14.43;9.23;;;3.40;99.90;;;;;;4949446;29;20051;-85
2021/03/25 03:44:10;;;;;;;14.98;9.30;;;3.30;99.90;;;;;;4952393;29;20130;-84
2021/03/25 03:46:38;;;;;;;16.52;9.85;;;3.30;99.90;;;;;;4938941;29;20090;-84
2021/03/25 03:49:14;;;;;;;15.75;8.82;;;3.30;99.90;;;;;;4932339;29;20071;-86
2021/03/25 03:51:54;;;;;;;15.30;9.00;;;3.20;99.90;;;;;;4944042;29;20146;-85
2021/03/25 03:54:23;;;;;;;17.90;9.70;;;3.20;99.90;;;;;;4923136;29;20055;-85
2021/03/25 03:57:04;;;;;;;15.13;9.10;;;3.20;99.90;;;;;;4922390;29;20094;-86
2021/03/25 03:59:42;;;;;;;16.83;8.68;;;3.20;99.90;;;;;;4938426;29;20047;-86
2021/03/25 04:02:17;;;;;;;17.27;10.32;;;3.20;99.90;;;;;;4938509;29;20059;-85
2021/03/25 04:04:50;;;;;;;17.67;9.52;;;3.20;99.90;;;;;;4922802;29;20110;-86
2021/03/25 04:07:27;;;;;;;16.15;9.50;;;3.10;99.90;;;;;;4940171;29;20083;-85
2021/03/25 04:10:23;;;;;;;18.98;8.82;;;3.00;99.90;;;;;;4933518;29;20056;-85
2021/03/25 04:12:55;;;;;;;;;;;2.90;99.90;;;;;;4929118;29;20051;-86
2021/03/25 04:15:24;;;;;;;;;;;3.00;99.90;;;;;;4923603;29;19927;-85
2021/03/25 04:18:10;;;;;;;17.13;9.05;;;2.90;99.90;;;;;;4925723;29;19954;-85
2021/03/25 04:20:45;;;;;;;18.80;8.82;;;2.90;99.90;;;;;;4941780;29;20350;-85
2021/03/25 04:23:18;;;;;;;14.82;8.68;;;2.90;99.90;;;;;;4918099;29;20079;-85
2021/03/25 04:26:07;;;;;;;13.65;8.73;;;3.10;99.90;;;;;;4914313;29;20052;-85
2021/03/25 04:28:37;;;;;;;14.25;8.30;;;3.20;99.90;;;;;;4927436;29;21620;-85
2021/03/25 04:31:08;;;;;;;17.08;8.40;;;3.20;99.90;;;;;;4938908;29;20081;-84
2021/03/25 04:33:38;;;;;;;13.73;9.02;;;3.10;99.90;;;;;;4937335;29;20059;-84
2021/03/25 04:36:15;;;;;;;15.00;8.57;;;3.20;99.90;;;;;;4906665;29;20427;-85
2021/03/25 04:38:45;;;;;;;13.73;8.13;;;3.10;99.90;;;;;;4922951;29;20131;-85
2021/03/25 04:41:14;;;;;;;12.98;8.05;;;3.10;99.90;;;;;;4921618;29;20135;-85
2021/03/25 04:43:44;;;;;;;12.82;9.15;;;3.10;99.90;;;;;;4922312;29;20086;-87
2021/03/25 04:46:48;;;;;;;16.98;8.38;;;3.10;99.90;;;;;;4925630;29;20051;-85
2021/03/25 04:49:39;;;;;;;13.90;8.52;;;3.10;99.90;;;;;;4940714;29;20079;-85
2021/03/25 04:52:17;;;;;;;17.48;9.68;;;3.20;99.90;;;;;;4930346;29;20082;-85
2021/03/25 04:54:44;;;;;;;15.82;8.48;;;3.20;99.90;;;;;;4932626;29;20452;-84
2021/03/25 04:57:36;;;;;;;12.68;8.10;;;3.10;99.90;;;;;;4937630;29;20052;-84
2021/03/25 05:00:16;;;;;;;13.63;8.88;;;3.10;99.90;;;;;;4921528;29;20047;-86
2021/03/25 05:02:43;;;;;;;16.88;8.73;;;3.10;99.90;;;;;;4922042;29;20051;-84
2021/03/25 05:05:26;;;;;;;13.90;7.93;;;3.10;99.90;;;;;;4922055;29;20081;-86
2021/03/25 05:08:03;;;;;;;17.27;9.10;;;3.10;99.90;;;;;;4922626;29;20155;-85
2021/03/25 05:10:52;;;;;;;15.05;9.27;;;3.00;99.90;;;;;;4921995;29;20483;-86
2021/03/25 05:13:39;;;;;;;16.08;9.20;;;3.00;99.90;;;;;;4941401;29;20054;-85
2021/03/25 05:16:30;;;;;;;14.30;8.30;;;2.90;99.90;;;;;;4934649;29;20052;-87
2021/03/25 05:19:17;;;;;;;13.88;7.60;;;2.90;99.90;;;;;;4954683;28;20039;-86
2021/03/25 05:22:00;;;;;;;16.30;9.63;;;2.90;99.90;;;;;;4947796;29;20138;-85
2021/03/25 05:24:48;;;;;;;13.73;8.38;;;2.90;99.90;;;;;;4937872;29;20075;-83
2021/03/25 05:27:27;;;;;;;13.35;8.40;;;2.90;99.90;;;;;;4931236;29;20130;-83
2021/03/25 05:29:56;;;;;;;16.50;8.25;;;2.90;99.90;;;;;;4913069;29;20068;-81
2021/03/25 05:32:35;;;;;;;14.13;8.73;;;2.90;99.90;;;;;;4922400;29;20127;-82
2021/03/25 05:35:08;;;;;;;13.50;8.10;;;3.00;99.90;;;;;;4940189;29;20066;-84
2021/03/25 05:37:35;;;;;;;15.07;8.77;;;3.00;99.90;;;;;;4930041;29;20398;-84
2021/03/25 05:40:24;;;;;;;13.90;8.07;;;3.00;99.90;;;;;;4950933;29;20083;-85
2021/03/25 05:42:54;;;;;;;14.77;7.63;;;3.10;99.90;;;;;;4946051;29;20048;-82
2021/03/25 05:45:48;;;;;;;13.93;7.15;;;3.10;99.90;;;;;;4933122;29;20055;-83
2021/03/25 05:48:31;;;;;;;15.48;7.93;;;3.10;99.90;;;;;;4925829;29;20103;-87
2021/03/25 05:51:05;;;;;;;;;;;3.10;99.90;;;;;;4941867;29;20135;-86
2021/03/25 05:54:00;;;;;;;12.88;8.25;;;3.20;99.90;;;;;;4940574;29;19981;-85
2021/03/25 05:56:45;;;;;;;15.25;7.20;;;3.30;99.90;;;;;;4941219;29;20051;-83
2021/03/25 05:59:16;;;;;;;12.82;7.50;;;3.40;99.90;;;;;;4936567;29;20119;-84
2021/03/25 06:02:02;;;;;;;11.05;7.50;;;3.50;99.90;;;;;;4922114;29;20078;-83
2021/03/25 06:04:36;;;;;;;11.77;6.68;;;3.60;99.90;;;;;;4922528;29;20055;-84
2021/03/25 06:07:10;;;;;;;10.82;7.03;;;3.60;99.90;;;;;;4921924;29;20066;-84
2021/03/25 06:10:15;;;;;;;12.48;7.07;;;3.70;99.90;;;;;;4923163;29;20059;-83
2021/03/25 06:13:06;;;;;;;11.27;6.78;;;3.80;99.90;;;;;;4939772;29;20131;-84
2021/03/25 06:16:16;;;;;;;9.15;5.97;;;4.00;99.90;;;;;;4940808;29;20063;-85
2021/03/25 06:19:07;;;;;;;12.10;6.53;;;4.10;99.90;;;;;;4903868;29;20135;-87
2021/03/25 06:22:06;;;;;;;10.63;6.25;;;4.40;99.90;;;;;;4941726;29;20131;-87
2021/03/25 06:25:00;;;;;;;13.25;6.97;;;4.80;99.90;;;;;;4948209;29;20059;-88
2021/03/25 06:27:55;;;;;;;10.65;6.03;;;5.30;99.90;;;;;;4925214;29;20195;-89
2021/03/25 06:30:39;;;;;;;9.68;6.53;;;5.50;99.90;;;;;;4924116;29;20074;-90
2021/03/25 06:37:16;;;;;;;12.65;6.38;;;6.00;99.90;;;;;;4899688;29;20056;-88
2021/03/25 06:39:50;;;;;;;9.38;5.65;;;6.30;99.90;;;;;;4918840;29;20047;-88
2021/03/25 06:42:22;;;;;;;10.30;6.53;;;6.40;99.90;;;;;;4921502;29;20044;-87
2021/03/25 06:45:11;;;;;;;15.48;6.60;;;6.50;99.90;;;;;;4927221;29;20125;-88
2021/03/25 06:48:27;;;;;;;11.50;6.40;;;6.60;99.90;;;;;;4941152;29;20047;-90
2021/03/25 06:51:10;;;;;;;15.00;6.22;;;6.70;99.90;;;;;;4937251;29;20059;-88
2021/03/25 06:54:17;;;;;;;11.00;6.07;;;6.90;99.90;;;;;;4938055;29;20043;-87
2021/03/25 06:59:38;;;;;;;12.47;7.57;;;7.30;99.90;;;;;;4925702;29;20047;-86
2021/03/25 07:02:23;;;;;;;12.15;6.05;;;7.50;99.90;;;;;;4924530;29;20303;-88
2021/03/25 07:05:10;;;;;;;10.90;5.80;;;7.90;99.80;;;;;;4934983;29;20056;-88
2021/03/25 07:07:43;;;;;;;9.77;5.75;;;8.10;96.70;;;;;;4934559;29;20048;-91
2021/03/25 07:10:32;;;;;;;;;;;;;;;;;;;;;
2021/03/25 07:14:06;;;;;;;;;;;;;;;;;;;;;
2021/03/25 07:16:56;;;;;;;11.50;5.22;;;8.70;91.50;;;;;;4862809;29;20084;-91
2021/03/25 07:19:44;;;;;;;7.28;4.88;;;9.10;89.80;;;;;;4848475;29;20060;-90
2021/03/25 07:22:36;;;;;;;11.38;5.38;;;9.20;86.30;;;;;;4872547;29;20065;-90
2021/03/25 07:25:35;;;;;;;7.00;4.72;;;9.20;85.30;;;;;;4866891;29;20106;-92
2021/03/25 07:28:23;;;;;;;14.55;5.50;;;9.30;85.40;;;;;;4851489;29;20063;-91
2021/03/25 07:31:09;;;;;;;;;;;;;;;;;;;;;
2021/03/25 07:34:26;;;;;;;13.38;5.68;;;9.30;86.40;;;;;;4864231;29;20100;-90
2021/03/25 07:36:55;;;;;;;13.85;5.20;;;9.50;84.40;;;;;;4864556;29;20120;-86
2021/03/25 07:39:44;;;;;;;9.38;5.18;;;9.60;85.80;;;;;;4870816;29;20045;-87
2021/03/25 07:42:24;;;;;;;12.90;4.43;;;9.70;82.50;;;;;;4952028;29;20108;-88
2021/03/25 07:45:11;;;;;;;12.55;4.85;;;9.90;81.60;;;;;;4936891;29;20521;-89
2021/03/25 07:47:45;;;;;;;7.38;4.53;;;10.20;75.70;;;;;;4932723;29;20047;-89
2021/03/25 07:50:31;;;;;;;8.20;4.63;;;10.50;73.40;;;;;;4943227;29;20391;-90
2021/03/25 07:53:20;;;;;;;6.38;4.40;;;10.70;72.40;;;;;;4923930;29;20078;-88
2021/03/25 07:55:46;;;;;;;9.35;5.38;;;10.80;70.60;;;;;;4923691;29;20078;-87
2021/03/25 07:58:41;;;;;;;8.32;4.95;;;11.00;68.20;;;;;;4924072;29;20047;-88
2021/03/25 08:01:19;;;;;;;8.70;4.75;;;11.30;68.10;;;;;;4923315;29;20047;-89
2021/03/25 08:03:54;;;;;;;13.13;5.15;;;11.50;65.80;;;;;;4917284;29;20052;-87
2021/03/25 08:06:38;;;;;;;10.68;4.82;;;11.60;65.50;;;;;;4938701;29;20072;-88
2021/03/25 08:09:25;;;;;;;;;;;;;;;;;;;;;
2021/03/25 08:12:02;;;;;;;6.45;4.35;;;12.20;63.60;;;;;;4943860;29;20047;-88
2021/03/25 08:14:35;;;;;;;7.15;4.38;;;12.90;60.60;;;;;;4944998;29;20044;-88
2021/03/25 08:17:10;;;;;;;5.70;4.20;;;13.40;58.90;;;;;;4950340;29;20047;-89
2021/03/25 08:19:52;;;;;;;8.88;4.97;;;13.60;58.50;;;;;;4927771;29;20048;-87
2021/03/25 08:22:52;;;;;;;8.45;4.20;;;13.70;57.00;;;;;;4940828;29;20051;-87
2021/03/25 08:26:14;;;;;;;9.35;4.88;;;13.90;56.70;;;;;;4930826;29;20071;-87
2021/03/25 08:29:19;;;;;;;;;;;;;;;;;;;;;
2021/03/25 08:32:31;;;;;;;8.05;4.25;;;14.30;54.90;;;;;;4936557;29;20055;-87
2021/03/25 08:35:38;;;;;;;8.05;4.18;;;14.60;54.60;;;;;;4938010;29;20111;-86
2021/03/25 08:38:42;;;;;;;6.95;4.00;;;15.10;53.10;;;;;;4878196;29;20156;-87
2021/03/25 08:41:19;;;;;;;7.57;4.28;;;15.20;51.50;;;;;;4940224;29;20075;-88
2021/03/25 08:44:24;;;;;;;7.10;4.38;;;15.20;52.10;;;;;;4938327;29;20047;-87
2021/03/25 08:47:15;;;;;;;7.25;4.50;;;15.80;52.00;;;;;;4917713;29;20052;-87
2021/03/25 08:50:09;;;;;;;6.80;4.85;;;16.20;49.80;;;;;;4925031;29;20055;-88
2021/03/25 08:52:39;;;;;;;5.00;4.07;;;16.30;50.10;;;;;;4929392;29;20170;-86
2021/03/25 08:55:21;;;;;;;7.35;3.95;;;16.10;50.10;;;;;;4920593;29;20064;-88
2021/03/25 08:58:03;;;;;;;6.72;4.28;;;16.40;49.60;;;;;;4920937;29;20079;-88
2021/03/25 09:00:39;;;;;;;6.47;3.92;;;16.80;49.90;;;;;;4933955;29;20123;-88
2021/03/25 09:03:27;;;;;;;6.53;4.43;;;17.50;48.10;;;;;;4938453;29;20123;-91
2021/03/25 09:07:10;;;;;;;6.38;4.47;;;18.00;46.50;;;;;;4931044;29;20120;-91
2021/03/25 09:13:06;;;;;;;6.35;4.38;;;18.20;46.20;;;;;;4896895;29;20084;-91
2021/03/25 09:20:26;;;;;;;7.72;4.28;;;18.50;44.60;;;;;;4831934;29;20061;-89
2021/03/25 09:23:17;;;;;;;8.05;3.90;;;19.30;45.30;;;;;;4894078;29;20053;-90
2021/03/25 09:26:13;;;;;;;8.77;4.00;;;20.20;42.50;;;;;;4909699;29;20079;-90
2021/03/25 09:29:06;;;;;;;8.50;3.97;;;21.10;42.10;;;;;;4897689;29;20143;-90
2021/03/25 09:31:41;;;;;;;9.30;4.22;;;21.60;39.80;;;;;;4881189;29;20048;-91
2021/03/25 09:34:11;;;;;;;;;;;22.30;38.50;;;;;;4916771;29;20488;-90
2021/03/25 09:37:25;;;;;;;7.55;3.70;;;21.70;37.40;;;;;;4899701;29;19923;-89
2021/03/25 09:40:07;;;;;;;6.72;4.20;;;20.70;39.70;;;;;;4903332;29;20056;-90
2021/03/25 09:42:38;;;;;;;6.50;4.05;;;20.50;40.40;;;;;;4917104;29;20075;-88
2021/03/25 09:45:41;;;;;;;7.00;3.92;;;20.50;41.10;;;;;;4901054;29;20072;-88
2021/03/25 09:48:45;;;;;;;7.75;4.47;;;21.10;41.00;;;;;;4902938;29;20147;-89
2021/03/25 09:51:22;;;;;;;9.65;4.53;;;21.60;40.20;;;;;;4888286;29;20056;-90
2021/03/25 09:54:07;;;;;;;9.07;4.20;;;22.40;38.40;;;;;;4933024;29;20074;-89
2021/03/25 09:56:35;;;;;;;7.07;4.05;;;23.00;37.10;;;;;;4921688;29;20063;-88
2021/03/25 09:59:43;;;;;;;8.45;4.82;;;22.70;36.70;;;;;;4949134;28;20060;-87
2021/03/25 10:02:13;;;;;;;9.55;4.53;;;22.80;37.60;;;;;;4947653;29;20111;-88
2021/03/25 10:05:19;;;;;;;8.48;4.15;;;23.40;36.80;;;;;;4934334;29;20084;-87
2021/03/25 10:11:46;;;;;;;8.80;5.60;;;23.90;36.20;;;;;;4885451;29;20052;-89
2021/03/25 10:14:44;;;;;;;9.50;5.40;;;24.70;34.10;;;;;;4942770;28;20056;-88
2021/03/25 10:17:43;;;;;;;10.73;5.90;;;25.30;33.60;;;;;;4926573;29;20043;-89
2021/03/25 10:21:01;;;;;;;8.93;5.88;;;25.50;32.10;;;;;;4943445;29;20058;-89
2021/03/25 10:23:35;;;;;;;10.38;6.20;;;25.70;31.40;;;;;;4927708;29;20059;-88
2021/03/25 10:26:31;;;;;;;13.35;6.22;;;25.80;32.60;;;;;;4944667;29;20051;-90
2021/03/25 10:29:11;;;;;;;8.77;5.68;;;26.00;32.00;;;;;;4940893;29;20079;-88
2021/03/25 10:31:46;;;;;;;8.60;5.50;;;26.30;31.00;;;;;;4941388;29;20401;-89
2021/03/25 10:34:15;;;;;;;11.85;5.45;;;26.10;31.90;;;;;;4926457;29;20126;-89
2021/03/25 10:37:05;;;;;;;7.35;5.28;;;26.00;32.20;;;;;;4946770;29;20058;-89
2021/03/25 10:39:47;;;;;;;11.07;5.68;;;25.50;33.20;;;;;;4948391;29;20051;-90
2021/03/25 10:42:25;;;;;;;9.25;5.30;;;26.00;31.40;;;;;;4949681;29;20052;-88
2021/03/25 10:44:53;;;;;;;9.23;5.57;;;26.00;30.40;;;;;;4945799;29;20142;-89
2021/03/25 10:47:38;;;;;;;9.23;5.97;;;25.10;33.70;;;;;;4947952;29;20103;-90
2021/03/25 10:50:09;;;;;;;8.25;5.57;;;24.90;35.20;;;;;;4947335;29;20410;-90
2021/03/25 10:52:42;;;;;;;7.55;4.10;;;25.90;32.90;;;;;;4953165;29;20047;-91
2021/03/25 10:55:43;;;;;;;5.90;3.63;;;26.10;30.80;;;;;;4934295;29;20405;-91
2021/03/25 10:58:40;;;;;;;6.40;3.78;;;25.70;30.50;;;;;;4935279;29;20059;-91
2021/03/25 11:02:20;;;;;;;7.25;4.25;;;25.90;32.50;;;;;;4945942;29;20103;-90
2021/03/25 11:05:23;;;;;;;7.70;4.20;;;25.90;30.60;;;;;;4952056;29;20473;-90
2021/03/25 11:08:00;;;;;;;8.68;4.63;;;24.80;32.00;;;;;;4934398;29;20054;-88
2021/03/25 11:10:36;;;;;;;9.23;4.95;;;24.10;33.30;;;;;;4928577;29;20055;-88
2021/03/25 11:13:26;;;;;;;11.43;5.20;;;23.00;35.40;;;;;;4941565;29;20043;-89
2021/03/25 11:16:18;;;;;;;9.55;4.47;;;22.30;36.70;;;;;;4922968;29;20449;-87
2021/03/25 11:19:05;;;;;;;5.88;4.05;;;21.50;37.30;;;;;;4925245;29;20489;-88
2021/03/25 11:21:36;;;;;;;7.10;4.30;;;21.30;37.80;;;;;;4923743;29;20115;-87
2021/03/25 11:24:16;;;;;;;6.45;3.90;;;22.50;38.00;;;;;;4922912;29;20477;-87
2021/03/25 11:26:44;;;;;;;5.45;3.92;;;24.20;35.00;;;;;;4921150;29;20052;-88
2021/03/25 11:29:16;;;;;;;6.75;3.78;;;25.90;32.10;;;;;;4941494;29;20062;-89
2021/03/25 11:31:44;;;;;;;6.75;4.38;;;26.70;30.00;;;;;;4942269;29;20079;-88
2021/03/25 11:34:29;;;;;;;7.28;4.25;;;25.60;30.70;;;;;;4925053;29;20461;-90
2021/03/25 11:37:12;;;;;;;6.20;4.63;;;25.30;31.70;;;;;;4924040;29;20043;-87
2021/03/25 11:39:56;;;;;;;5.50;3.72;;;24.80;33.00;;;;;;4928207;29;20065;-89
2021/03/25 11:42:26;;;;;;;6.07;3.83;;;25.30;30.80;;;;;;4924200;29;20318;-89
2021/03/25 11:45:06;;;;;;;5.40;3.42;;;24.90;30.20;;;;;;4927688;29;20055;-89
2021/03/25 11:47:39;;;;;;;5.53;3.95;;;25.00;31.00;;;;;;4942762;29;20052;-89
2021/03/25 11:50:31;;;;;;;6.35;4.63;;;24.30;31.90;;;;;;4948299;29;20060;-89
2021/03/25 11:53:03;;;;;;;7.57;5.18;;;22.80;35.00;;;;;;4948427;29;20107;-89
2021/03/25 11:55:50;;;;;;;7.93;5.10;;;21.60;36.40;;;;;;4947789;29;20059;-89
2021/03/25 11:58:57;;;;;;;9.20;5.68;;;20.00;39.50;;;;;;4946855;29;20051;-89
2021/03/25 12:01:34;;;;;;;7.00;4.57;;;19.10;41.50;;;;;;4940289;29;20051;-89
2021/03/25 12:04:20;;;;;;;9.40;5.63;;;18.80;42.50;;;;;;4918581;29;20476;-88
2021/03/25 12:07:05;;;;;;;7.53;5.10;;;19.60;42.40;;;;;;4925705;29;20044;-89
2021/03/25 12:09:34;;;;;;;8.05;5.30;;;20.60;40.10;;;;;;4924169;29;20062;-88
2021/03/25 12:12:04;;;;;;;9.00;5.53;;;21.00;38.90;;;;;;4924583;29;20047;-89
2021/03/25 12:14:48;;;;;;;12.02;6.22;;;20.50;40.40;;;;;;4902758;29;20067;-89
2021/03/25 12:17:30;;;;;;;9.48;5.95;;;19.80;40.20;;;;;;4913995;29;20135;-90
2021/03/25 12:20:09;;;;;;;15.27;6.68;;;19.00;42.00;;;;;;4902221;29;20096;-89
2021/03/25 12:26:41;;;;;;;11.18;5.28;;;19.80;42.20;;;;;;4898411;29;20076;-89
2021/03/25 12:29:31;;;;;;;7.57;4.03;;;22.40;36.90;;;;;;4873125;29;20431;-88
2021/03/25 12:32:20;;;;;;;5.32;3.33;;;23.90;34.40;;;;;;4876232;29;20084;-90
2021/03/25 12:35:23;;;;;;;5.95;3.67;;;24.20;32.30;;;;;;4898419;29;20076;-90
2021/03/25 12:37:51;;;;;;;4.57;3.30;;;23.10;33.40;;;;;;4895778;29;20149;-89
2021/03/25 12:40:24;;;;;;;4.75;3.10;;;23.30;33.60;;;;;;4890495;29;20117;-88
2021/03/25 12:43:05;;;;;;;4.57;3.10;;;23.30;33.40;;;;;;4913943;29;20108;-90
2021/03/25 12:45:51;;;;;;;5.30;3.10;;;22.90;33.50;;;;;;4925858;29;20083;-89
2021/03/25 12:51:41;;;;;;;2.92;2.55;;;20.80;36.70;;;;;;4909171;28;20047;-89
2021/03/25 12:54:08;;;;;;;6.80;2.60;;;19.40;39.20;;;;;;4939416;29;20361;-89
2021/03/25 12:56:40;;;;;;;3.10;2.10;;;18.80;40.30;;;;;;4939693;29;20139;-90
2021/03/25 12:59:16;;;;;;;5.05;2.60;;;18.60;41.10;;;;;;4938145;29;20134;-90
2021/03/25 13:01:45;;;;;;;5.40;2.72;;;18.70;42.10;;;;;;4922792;29;20110;-89
2021/03/25 13:04:12;;;;;;;3.53;2.50;;;18.90;40.60;;;;;;4934555;29;20118;-88
2021/03/25 13:06:44;;;;;;;3.95;2.10;;;18.70;40.70;;;;;;4939670;29;20075;-90
2021/03/25 13:09:43;;;;;;;5.25;2.50;;;18.50;41.90;;;;;;4909259;29;20405;-90
2021/03/25 13:15:55;;;;;;;5.22;2.33;;;19.10;41.40;;;;;;4930233;29;20062;-89
2021/03/25 13:29:17;;;;;;;3.00;2.40;;;21.10;36.70;;;;;;4859730;29;20049;-90
2021/03/25 13:32:13;;;;;;;3.20;2.30;;;20.80;36.90;;;;;;4850216;29;20068;-91
2021/03/25 13:34:57;;;;;;;2.80;2.30;;;20.80;37.10;;;;;;4878000;29;20164;-90
2021/03/25 13:37:57;;;;;;;3.90;2.30;;;20.50;37.10;;;;;;4880474;29;20041;-90
2021/03/25 13:40:41;;;;;;;6.45;3.42;;;20.40;38.40;;;;;;4849182;29;20060;-88
2021/03/25 13:43:15;;;;;;;7.75;4.65;;;20.60;41.40;;;;;;4875402;29;20052;-91
2021/03/25 13:45:47;;;;;;;10.10;5.25;;;21.30;41.30;;;;;;4882506;29;20109;-90
2021/03/25 13:48:35;;;;;;;7.57;5.00;;;21.60;39.60;;;;;;4879746;29;20140;-90
2021/03/25 13:51:20;;;;;;;10.27;4.70;;;22.30;39.30;;;;;;4879082;29;20502;-89
2021/03/25 13:53:48;;;;;;;7.68;4.75;;;22.60;37.60;;;;;;4876076;29;20048;-89
2021/03/25 13:56:15;;;;;;;7.70;4.80;;;23.10;36.90;;;;;;4912928;29;20048;-90
2021/03/25 13:58:44;;;;;;;7.15;4.30;;;23.10;37.50;;;;;;4947928;29;20119;-89
2021/03/25 14:01:11;;;;;;;6.70;3.63;;;22.90;36.50;;;;;;4941835;29;20111;-89
2021/03/25 14:03:50;;;;;;;3.25;2.28;;;22.80;36.50;;;;;;4933424;29;20107;-89
2021/03/25 14:06:22;;;;;;;2.40;2.03;;;23.00;34.40;;;;;;4931562;29;20078;-89
2021/03/25 14:08:49;;;;;;;2.88;2.03;;;22.90;34.00;;;;;;4928052;29;20087;-90
2021/03/25 14:11:18;;;;;;;5.20;2.47;;;22.80;35.30;;;;;;4931307;29;20521;-91
2021/03/25 14:13:48;;;;;;;4.22;2.03;;;23.20;33.60;;;;;;4940737;29;20051;-89
2021/03/25 14:16:24;;;;;;;2.97;1.90;;;23.50;32.20;;;;;;4943068;29;20435;-89
2021/03/25 14:19:31;;;;;;;3.47;2.10;;;23.30;31.70;;;;;;4943438;28;20055;-89
2021/03/25 14:22:06;;;;;;;2.58;1.80;;;22.50;32.50;;;;;;4928075;29;20043;-90
2021/03/25 14:24:35;;;;;;;2.90;2.38;;;21.30;34.40;;;;;;4937364;29;20059;-89
2021/03/25 14:27:15;;;;;;;5.60;2.25;;;19.90;35.00;;;;;;4926464;29;20135;-88
2021/03/25 14:29:41;;;;;;;4.75;2.10;;;18.80;37.10;;;;;;4910614;29;20134;-88
2021/03/25 14:32:10;;;;;;;3.35;1.83;;;18.30;38.60;;;;;;4915932;29;20091;-91
2021/03/25 14:34:37;;;;;;;6.15;2.70;;;18.10;39.10;;;;;;4930564;29;20532;-89
2021/03/25 14:37:07;;;;;;;3.75;2.25;;;17.80;39.40;;;;;;4947936;29;20056;-90
2021/03/25 14:39:34;;;;;;;3.10;2.10;;;17.50;40.40;;;;;;4947100;29;20051;-90
2021/03/25 14:42:05;;;;;;;4.75;2.13;;;17.40;40.70;;;;;;4936441;29;20103;-89
2021/03/25 14:44:34;;;;;;;3.38;2.22;;;17.50;40.70;;;;;;4950748;29;20433;-89